createdAt,value
2019-06-01T00:01:44.863Z,9.47
2019-06-01T00:04:15.715Z,9.10
2019-06-01T00:06:46.836Z,11.03
2019-06-01T00:09:18.624Z,12.27
2019-06-01T00:11:49.672Z,11.33
2019-06-01T00:14:20.688Z,12.50
2019-06-01T00:16:50.882Z,9.40
2019-06-01T00:19:22.040Z,8.67
2019-06-01T00:21:52.562Z,11.67
2019-06-01T00:24:22.571Z,11.70
2019-06-01T00:26:53.102Z,9.67
2019-06-01T00:29:23.634Z,11.47
2019-06-01T00:31:54.060Z,11.53
2019-06-01T00:34:24.485Z,12.53
2019-06-01T00:36:55.019Z,12.77
2019-06-01T00:39:25.242Z,11.90
2019-06-01T00:41:55.449Z,10.40
2019-06-01T00:44:25.690Z,10.17
2019-06-01T00:46:55.907Z,11.00
2019-06-01T00:49:25.711Z,11.87
2019-06-01T00:51:55.839Z,10.90
2019-06-01T00:54:27.377Z,15.80
2019-06-01T00:56:58.209Z,12.27
2019-06-01T00:59:28.650Z,11.30
2019-06-01T01:01:59.290Z,10.60
2019-06-01T01:04:29.610Z,11.17
2019-06-01T01:07:00.023Z,10.43
2019-06-01T01:09:30.239Z,9.43
2019-06-01T01:12:00.461Z,11.60
2019-06-01T01:14:31.411Z,9.93
2019-06-01T01:17:01.529Z,12.87
2019-06-01T01:19:31.329Z,11.93
2019-06-01T01:22:01.270Z,12.67
2019-06-01T01:24:31.891Z,11.80
2019-06-01T01:27:02.000Z,11.27
2019-06-01T01:29:32.422Z,12.33
2019-06-01T01:32:02.552Z,12.57
2019-06-01T01:34:32.556Z,12.73
2019-06-01T01:37:02.263Z,10.90
2019-06-01T01:39:32.485Z,9.87
2019-06-01T01:42:02.611Z,11.80
2019-06-01T01:44:32.723Z,14.20
2019-06-01T01:47:03.252Z,12.87
2019-06-01T01:49:33.580Z,14.00
2019-06-01T01:52:03.598Z,13.30
2019-06-01T01:54:34.017Z,15.00
2019-06-01T01:57:07.086Z,14.83
2019-06-01T01:59:35.996Z,16.43
2019-06-01T02:02:06.238Z,15.57
2019-06-01T02:04:36.547Z,14.67
2019-06-01T02:07:06.454Z,16.57
2019-06-01T02:09:37.108Z,13.43
2019-06-01T02:12:07.514Z,13.23
2019-06-01T02:14:38.169Z,14.87
2019-06-01T02:17:09.195Z,12.73
2019-06-01T02:19:39.617Z,22.00
2019-06-01T02:22:09.642Z,23.03
2019-06-01T02:24:40.053Z,21.00
2019-06-01T02:27:10.279Z,19.03
2019-06-01T02:29:40.502Z,20.27
2019-06-01T02:32:11.029Z,24.30
2019-06-01T02:34:41.258Z,21.33
2019-06-01T02:37:11.979Z,20.37
2019-06-01T02:39:41.903Z,18.17
2019-06-01T02:42:13.862Z,17.77
2019-06-01T02:44:43.872Z,16.13
2019-06-01T02:47:14.209Z,18.10
2019-06-01T02:49:44.911Z,15.00
2019-06-01T02:52:15.580Z,16.57
2019-06-01T02:54:46.297Z,16.77
2019-06-01T02:57:17.657Z,13.20
2019-06-01T02:59:48.269Z,16.63
2019-06-01T03:02:18.909Z,15.43
2019-06-01T03:04:49.648Z,16.03
2019-06-01T03:07:20.173Z,17.50
2019-06-01T03:09:50.485Z,14.33
2019-06-01T03:12:23.585Z,12.13
2019-06-01T03:14:55.537Z,16.53
2019-06-01T03:17:26.487Z,13.03
2019-06-01T03:19:58.037Z,14.00
2019-06-01T03:22:30.302Z,15.00
2019-06-01T03:25:02.087Z,15.87
2019-06-01T03:27:34.224Z,18.10
2019-06-01T03:30:08.560Z,14.60
2019-06-01T03:32:38.565Z,16.60
2019-06-01T03:35:09.300Z,12.87
2019-06-01T03:37:39.716Z,16.27
2019-06-01T03:40:20.352Z,15.77
2019-06-01T03:42:43.034Z,15.97
2019-06-01T03:45:14.179Z,16.87
2019-06-01T03:47:44.812Z,17.03
2019-06-01T03:50:15.749Z,16.03
2019-06-01T03:52:48.840Z,15.53
2019-06-01T03:55:20.481Z,16.50
2019-06-01T03:57:51.657Z,16.90
2019-06-01T04:00:23.611Z,17.87
2019-06-01T04:03:07.760Z,13.43
2019-06-01T04:05:44.424Z,16.93
2019-06-01T04:08:21.917Z,15.50
2019-06-01T04:13:36.901Z,17.23
2019-06-01T04:16:07.902Z,15.33
2019-06-01T04:18:38.764Z,15.00
2019-06-01T04:21:10.197Z,15.73
2019-06-01T04:23:40.655Z,17.80
2019-06-01T04:26:10.751Z,14.10
2019-06-01T04:28:40.872Z,12.97
2019-06-01T04:31:10.923Z,15.50
2019-06-01T04:33:40.801Z,14.33
2019-06-01T04:36:11.240Z,17.37
2019-06-01T04:38:42.478Z,22.77
2019-06-01T04:41:14.003Z,18.37
2019-06-01T04:43:44.673Z,18.90
2019-06-01T04:46:14.775Z,17.20
2019-06-01T04:48:45.121Z,19.10
2019-06-01T04:51:15.760Z,15.93
2019-06-01T04:53:45.754Z,17.80
2019-06-01T04:56:16.300Z,17.27
2019-06-01T04:58:47.238Z,19.90
2019-06-01T05:01:17.659Z,16.40
2019-06-01T05:03:48.293Z,17.37
2019-06-01T05:06:18.295Z,15.97
2019-06-01T05:08:48.743Z,20.77
2019-06-01T05:11:19.038Z,15.70
2019-06-01T05:13:50.998Z,16.77
2019-06-01T05:16:21.029Z,15.73
2019-06-01T05:18:51.249Z,15.80
2019-06-01T05:21:21.561Z,14.90
2019-06-01T05:23:51.607Z,15.63
2019-06-01T05:26:23.242Z,15.00
2019-06-01T05:28:54.584Z,18.77
2019-06-01T05:31:25.306Z,17.50
2019-06-01T05:33:55.649Z,15.73
2019-06-01T05:36:25.859Z,16.17
2019-06-01T05:38:55.979Z,16.27
2019-06-01T05:41:26.199Z,16.83
2019-06-01T05:43:56.631Z,17.00
2019-06-01T05:46:27.053Z,15.50
2019-06-01T05:48:58.213Z,15.57
2019-06-01T05:51:28.619Z,17.23
2019-06-01T05:54:04.590Z,19.93
2019-06-01T05:56:37.687Z,18.77
2019-06-01T05:59:09.900Z,18.27
2019-06-01T06:01:40.883Z,22.67
2019-06-01T06:04:13.783Z,19.67
2019-06-01T06:06:56.573Z,18.17
2019-06-01T06:09:28.897Z,21.63
2019-06-01T06:12:00.900Z,24.33
2019-06-01T06:14:33.187Z,23.10
2019-06-01T06:17:04.223Z,21.23
2019-06-01T06:19:35.775Z,20.60
2019-06-01T06:22:09.191Z,18.80
2019-06-01T06:24:41.661Z,9.93
2019-06-01T06:27:14.469Z,10.97
2019-06-01T06:29:47.328Z,15.23
2019-06-01T06:32:19.250Z,14.57
2019-06-01T06:34:51.051Z,14.80
2019-06-01T06:37:23.829Z,15.47
2019-06-01T06:39:54.561Z,11.93
2019-06-01T06:42:25.271Z,10.20
2019-06-01T06:44:56.726Z,8.77
2019-06-01T06:47:29.839Z,14.07
2019-06-01T06:50:05.770Z,10.20
2019-06-01T06:52:43.053Z,14.23
2019-06-01T06:55:21.976Z,13.80
2019-06-01T06:57:54.784Z,13.73
2019-06-01T07:00:27.003Z,14.40
2019-06-01T07:02:58.603Z,12.17
2019-06-01T07:05:31.447Z,12.50
2019-06-01T07:08:06.205Z,10.80
2019-06-01T07:10:38.270Z,12.00
2019-06-01T07:13:13.294Z,8.67
2019-06-01T07:15:43.729Z,11.43
2019-06-01T07:18:21.447Z,19.37
2019-06-01T07:21:02.419Z,13.10
2019-06-01T07:23:41.914Z,19.90
2019-06-01T07:26:13.293Z,9.97
2019-06-01T07:28:44.739Z,12.90
2019-06-01T07:31:18.220Z,14.97
2019-06-01T07:33:49.080Z,11.17
2019-06-01T07:36:20.237Z,9.63
2019-06-01T07:38:51.577Z,9.83
2019-06-01T07:41:26.810Z,5.03
2019-06-01T07:43:54.672Z,5.43
2019-06-01T07:46:26.842Z,7.23
2019-06-01T07:49:03.109Z,5.53
2019-06-01T07:51:34.745Z,5.73
2019-06-01T07:54:05.694Z,9.20
2019-06-01T07:56:36.720Z,7.90
2019-06-01T07:59:07.685Z,7.47
2019-06-01T08:01:38.611Z,6.67
2019-06-01T08:04:09.540Z,7.93
2019-06-01T08:06:45.795Z,5.23
2019-06-01T08:09:10.790Z,9.10
2019-06-01T08:11:42.041Z,4.00
2019-06-01T08:14:12.270Z,5.00
2019-06-01T08:16:45.244Z,6.73
2019-06-01T08:19:16.713Z,6.07
2019-06-01T08:21:47.127Z,4.63
2019-06-01T08:24:17.676Z,12.63
2019-06-01T08:26:48.285Z,5.53
2019-06-01T08:29:19.550Z,4.83
2019-06-01T08:31:55.505Z,4.87
2019-06-01T08:34:22.834Z,4.03
2019-06-01T08:36:54.287Z,3.73
2019-06-01T08:39:27.474Z,5.70
2019-06-01T08:41:58.212Z,5.80
2019-06-01T08:44:36.819Z,5.23
2019-06-01T08:47:07.985Z,4.00
2019-06-01T08:49:38.310Z,4.90
2019-06-01T08:52:08.751Z,6.97
2019-06-01T08:54:40.610Z,5.60
2019-06-01T08:57:11.654Z,3.50
2019-06-01T08:59:44.810Z,6.20
2019-06-01T09:02:16.691Z,5.17
2019-06-01T09:04:48.026Z,5.23
2019-06-01T09:07:18.620Z,4.30
2019-06-01T09:09:49.290Z,7.37
2019-06-01T09:12:19.814Z,4.63
2019-06-01T09:14:50.051Z,7.07
2019-06-01T09:17:20.149Z,5.37
2019-06-01T09:19:50.269Z,10.57
2019-06-01T09:22:20.601Z,4.47
2019-06-01T09:24:53.307Z,4.47
2019-06-01T09:27:22.055Z,3.87
2019-06-01T09:29:52.489Z,6.47
2019-06-01T09:32:22.640Z,5.57
2019-06-01T09:34:52.430Z,6.93
2019-06-01T09:37:22.651Z,5.87
2019-06-01T09:39:52.672Z,5.13
2019-06-01T09:42:22.691Z,7.20
2019-06-01T09:44:53.910Z,3.40
2019-06-01T09:47:23.911Z,3.80
2019-06-01T09:49:53.650Z,5.23
2019-06-01T09:52:23.554Z,5.77
2019-06-01T09:54:54.610Z,5.27
2019-06-01T09:57:25.130Z,4.20
2019-06-01T09:59:55.570Z,4.20
2019-06-01T10:02:25.464Z,3.30
2019-06-01T10:04:55.710Z,6.80
2019-06-01T10:07:25.911Z,7.27
2019-06-01T10:09:56.022Z,5.17
2019-06-01T10:12:26.370Z,6.53
2019-06-01T10:14:58.630Z,5.63
2019-06-01T10:17:28.450Z,4.53
2019-06-01T10:19:59.791Z,4.73
2019-06-01T10:22:30.900Z,6.50
2019-06-01T10:25:01.141Z,3.73
2019-06-01T10:27:32.451Z,7.47
2019-06-01T10:30:03.251Z,5.93
2019-06-01T10:32:35.646Z,7.40
2019-06-01T10:35:18.315Z,6.03
2019-06-01T10:37:48.426Z,9.93
2019-06-01T10:40:18.443Z,5.93
2019-06-01T10:42:48.257Z,4.47
2019-06-01T10:45:18.277Z,5.23
2019-06-01T10:47:48.614Z,11.03
2019-06-01T10:50:19.157Z,5.93
2019-06-01T10:52:50.306Z,5.47
2019-06-01T10:55:28.710Z,3.77
2019-06-01T10:57:59.630Z,4.47
2019-06-01T11:00:39.845Z,3.93
2019-06-01T11:03:01.504Z,4.70
2019-06-01T11:05:32.502Z,5.43
2019-06-01T11:08:03.090Z,4.93
2019-06-01T11:10:36.863Z,5.33
2019-06-01T11:13:07.294Z,7.62
2019-06-01T11:15:41.275Z,6.10
2019-06-01T11:18:19.409Z,6.47
2019-06-01T11:20:49.838Z,7.07
2019-06-01T11:23:19.949Z,8.60
2019-06-01T11:25:50.290Z,7.73
2019-06-01T11:28:20.506Z,7.73
2019-06-01T11:30:54.230Z,6.97
2019-06-01T11:33:25.669Z,7.50
2019-06-01T11:35:56.210Z,6.57
2019-06-01T11:38:26.613Z,7.37
2019-06-01T11:40:56.752Z,6.77
2019-06-01T11:43:28.489Z,6.73
2019-06-01T11:45:58.895Z,6.07
2019-06-01T11:48:28.846Z,8.97
2019-06-01T11:50:58.844Z,6.00
2019-06-01T11:53:28.546Z,5.07
2019-06-01T11:55:58.264Z,6.17
2019-06-01T11:58:28.177Z,8.50
2019-06-01T12:00:58.294Z,6.23
2019-06-01T12:03:28.108Z,5.30
2019-06-01T12:05:57.920Z,4.17
2019-06-01T12:08:28.248Z,5.17
2019-06-01T12:10:58.156Z,7.90
2019-06-01T12:13:28.582Z,6.17
2019-06-01T12:15:58.393Z,4.87
2019-06-01T12:18:28.305Z,5.73
2019-06-01T12:20:58.532Z,5.30
2019-06-01T12:23:29.172Z,4.27
2019-06-01T12:25:59.611Z,4.10
2019-06-01T12:28:29.286Z,4.50
2019-06-01T12:31:01.978Z,3.77
2019-06-01T12:33:32.809Z,3.50
2019-06-01T12:36:05.182Z,5.40
2019-06-01T12:38:52.608Z,4.53
2019-06-01T12:41:43.495Z,4.57
2019-06-01T12:44:15.475Z,4.93
2019-06-01T12:46:45.300Z,3.23
2019-06-01T12:49:15.507Z,7.30
2019-06-01T12:51:46.929Z,5.20
2019-06-01T12:54:17.596Z,3.73
2019-06-01T12:56:49.731Z,7.87
2019-06-01T12:59:19.464Z,3.30
2019-06-01T13:01:49.481Z,4.97
2019-06-01T13:04:20.009Z,3.30
2019-06-01T13:06:52.312Z,3.70
2019-06-01T13:09:21.678Z,4.33
2019-06-01T13:11:51.558Z,4.93
2019-06-01T13:14:25.530Z,3.63
2019-06-01T13:17:06.301Z,3.43
2019-06-01T13:19:27.481Z,2.90
2019-06-01T13:21:57.496Z,5.07
2019-06-01T13:24:27.651Z,5.03
2019-06-01T13:26:58.248Z,3.87
2019-06-01T13:29:28.266Z,3.67
2019-06-01T13:31:58.082Z,4.23
2019-06-01T13:34:27.987Z,8.60
2019-06-01T13:37:00.877Z,3.13
2019-06-01T13:39:30.794Z,4.07
2019-06-01T13:42:02.241Z,5.37
2019-06-01T13:44:32.688Z,3.57
2019-06-01T13:47:04.633Z,2.90
2019-06-01T13:53:00.682Z,3.60
2019-06-01T13:55:32.743Z,3.67
2019-06-01T13:58:04.633Z,3.43
2019-06-01T14:00:36.362Z,3.17
2019-06-01T14:03:07.197Z,3.80
2019-06-01T14:05:38.127Z,3.87
2019-06-01T14:08:08.672Z,4.07
2019-06-01T14:10:39.186Z,7.20
2019-06-01T14:13:10.226Z,4.50
2019-06-01T14:15:40.548Z,3.97
2019-06-01T14:18:11.282Z,4.13
2019-06-01T14:20:41.910Z,4.07
2019-06-01T14:23:12.771Z,3.27
2019-06-01T14:25:43.585Z,3.73
2019-06-01T14:28:13.614Z,3.50
2019-06-01T14:30:43.815Z,3.17
2019-06-01T14:33:14.239Z,3.30
2019-06-01T14:35:44.673Z,3.37
2019-06-01T14:38:15.201Z,4.83
2019-06-01T14:40:46.984Z,3.83
2019-06-01T14:43:17.593Z,4.17
2019-06-01T14:45:47.467Z,3.90
2019-06-01T14:48:17.534Z,4.80
2019-06-01T14:50:47.514Z,4.50
2019-06-01T14:53:18.185Z,5.20
2019-06-01T14:55:49.609Z,6.10
2019-06-01T14:58:20.047Z,4.47
2019-06-01T15:00:50.578Z,4.67
2019-06-01T15:03:20.695Z,4.20
2019-06-01T15:05:50.606Z,10.27
2019-06-01T15:08:20.216Z,5.40
2019-06-01T15:10:50.661Z,4.70
2019-06-01T15:13:20.964Z,5.70
2019-06-01T15:15:51.497Z,5.33
2019-06-01T15:18:21.304Z,5.17
2019-06-01T15:20:51.701Z,5.13
2019-06-01T15:23:21.647Z,4.00
2019-06-01T15:25:54.288Z,4.10
2019-06-01T15:28:25.178Z,8.20
2019-06-01T15:30:55.271Z,5.73
2019-06-01T15:33:29.591Z,4.60
2019-06-01T15:36:00.130Z,4.40
2019-06-01T15:38:31.177Z,6.00
2019-06-01T15:41:02.625Z,7.07
2019-06-01T15:43:33.265Z,3.53
2019-06-01T15:46:03.162Z,4.20
2019-06-01T15:48:32.866Z,3.93
2019-06-01T15:51:07.044Z,3.60
2019-06-01T15:53:34.544Z,4.37
2019-06-01T15:56:04.249Z,4.00
2019-06-01T15:58:34.394Z,3.70
2019-06-01T16:01:04.491Z,3.90
2019-06-01T16:03:34.694Z,4.17
2019-06-01T16:06:04.623Z,4.87
2019-06-01T16:08:34.861Z,4.10
2019-06-01T16:11:06.536Z,3.40
2019-06-01T16:13:37.139Z,4.17
2019-06-01T16:16:07.146Z,3.27
2019-06-01T16:18:37.078Z,3.33
2019-06-01T16:21:07.199Z,3.53
2019-06-01T16:23:49.338Z,5.10
2019-06-01T16:26:16.137Z,4.37
2019-06-01T16:28:42.059Z,4.07
2019-06-01T16:31:13.388Z,6.40
2019-06-01T16:33:43.923Z,6.10
2019-06-01T16:36:14.448Z,6.87
2019-06-01T16:38:44.464Z,4.80
2019-06-01T16:41:14.486Z,4.37
2019-06-01T16:43:44.550Z,4.47
2019-06-01T16:46:14.641Z,5.20
2019-06-01T16:48:44.639Z,4.20
2019-06-01T16:51:14.759Z,4.17
2019-06-01T16:53:45.384Z,5.03
2019-06-01T16:56:15.406Z,5.73
2019-06-01T16:58:45.417Z,6.33
2019-06-01T17:01:15.765Z,6.03
2019-06-01T17:03:46.065Z,4.40
2019-06-01T17:06:16.183Z,4.80
2019-06-01T17:08:48.247Z,5.57
2019-06-01T17:11:18.467Z,5.93
2019-06-01T17:13:48.279Z,4.37
2019-06-01T17:16:18.503Z,5.33
2019-06-01T17:18:49.033Z,4.10
2019-06-01T17:21:19.178Z,4.23
2019-06-01T17:23:50.200Z,4.57
2019-06-01T17:26:20.715Z,4.57
2019-06-01T17:28:50.528Z,3.90
2019-06-01T17:31:20.339Z,4.80
2019-06-01T17:33:50.464Z,6.93
2019-06-01T17:36:20.599Z,4.43
2019-06-01T17:38:50.598Z,4.03
2019-06-01T17:41:20.621Z,3.73
2019-06-01T17:43:50.527Z,8.00
2019-06-01T17:46:21.057Z,6.47
2019-06-01T17:48:50.987Z,6.40
2019-06-01T17:51:21.084Z,6.33
2019-06-01T17:53:53.274Z,6.67
2019-06-01T17:56:22.247Z,7.67
2019-06-01T17:58:52.378Z,8.03
2019-06-01T18:01:22.299Z,5.47
2019-06-01T18:03:52.319Z,5.53
2019-06-01T18:06:22.539Z,5.53
2019-06-01T18:08:52.123Z,5.00
2019-06-01T18:11:22.242Z,4.43
2019-06-01T18:13:52.465Z,4.50
2019-06-01T18:16:22.072Z,4.73
2019-06-01T18:18:52.291Z,4.20
2019-06-01T18:21:22.632Z,4.73
2019-06-01T18:23:52.936Z,4.73
2019-06-01T18:26:24.297Z,5.20
2019-06-01T18:28:54.819Z,4.83
2019-06-01T18:31:26.577Z,6.40
2019-06-01T18:33:57.309Z,9.03
2019-06-01T18:36:28.349Z,12.60
2019-06-01T18:38:59.492Z,21.93
2019-06-01T18:41:29.718Z,17.30
2019-06-01T18:44:00.459Z,14.57
2019-06-01T18:46:30.259Z,18.10
2019-06-01T18:49:01.317Z,12.70
2019-06-01T18:51:32.150Z,9.10
2019-06-01T18:54:04.237Z,14.40
2019-06-01T18:56:36.371Z,13.70
2019-06-01T18:59:08.519Z,10.40
2019-06-01T19:01:40.599Z,12.37
2019-06-01T19:04:11.814Z,11.13
2019-06-01T19:06:43.599Z,19.43
2019-06-01T19:09:15.654Z,16.80
2019-06-01T19:11:46.616Z,13.83
2019-06-01T19:14:17.023Z,11.63
2019-06-01T19:16:47.248Z,16.83
2019-06-01T19:19:17.272Z,14.40
2019-06-01T19:21:47.281Z,13.00
2019-06-01T19:24:17.909Z,13.67
2019-06-01T19:26:48.442Z,10.27
2019-06-01T19:29:18.463Z,11.13
2019-06-01T19:31:49.599Z,12.07
2019-06-01T19:34:19.721Z,11.97
2019-06-01T19:36:51.592Z,14.40
2019-06-01T19:39:40.335Z,13.33
2019-06-01T19:42:11.223Z,12.10
2019-06-01T19:44:41.298Z,12.40
2019-06-01T19:47:11.851Z,12.77
2019-06-01T19:49:43.989Z,10.50
2019-06-01T19:52:13.282Z,11.77
2019-06-01T19:54:44.122Z,9.80
2019-06-01T19:57:18.343Z,12.33
2019-06-01T19:59:46.301Z,11.70
2019-06-01T20:02:28.526Z,21.73
2019-06-01T20:04:48.503Z,24.00
2019-06-01T20:07:19.277Z,22.37
2019-06-01T20:09:50.178Z,19.57
2019-06-01T20:12:20.494Z,18.00
2019-06-01T20:14:50.499Z,18.03
2019-06-01T20:17:24.583Z,19.33
2019-06-01T20:19:52.179Z,19.00
2019-06-01T20:22:21.975Z,29.63
2019-06-01T20:24:52.614Z,25.33
2019-06-01T20:27:26.525Z,26.03
2019-06-01T20:29:56.739Z,23.00
2019-06-01T20:32:26.555Z,27.33
2019-06-01T20:34:56.580Z,26.17
2019-06-01T20:37:26.492Z,75.57
2019-06-01T20:39:56.603Z,154.03
2019-06-01T20:42:32.551Z,120.77
2019-06-01T20:44:58.068Z,70.13
2019-06-01T20:47:28.699Z,62.83
2019-06-01T20:49:59.132Z,31.27
2019-06-01T20:52:29.958Z,76.30
2019-06-01T20:54:59.877Z,57.67
2019-06-01T20:57:29.793Z,41.57
2019-06-01T21:00:00.137Z,35.57
2019-06-01T21:02:30.459Z,26.80
2019-06-01T21:05:00.248Z,25.47
2019-06-01T21:07:30.275Z,20.73
2019-06-01T21:10:00.283Z,21.43
2019-06-01T21:12:44.051Z,24.17
2019-06-01T21:15:01.954Z,18.47
2019-06-01T21:17:31.869Z,20.67
2019-06-01T21:20:04.518Z,22.93
2019-06-01T21:22:33.028Z,32.70
2019-06-01T21:25:03.045Z,35.00
2019-06-01T21:27:33.572Z,25.43
2019-06-01T21:30:03.597Z,24.43
2019-06-01T21:32:33.812Z,22.20
2019-06-01T21:35:04.236Z,18.87
2019-06-01T21:37:34.255Z,18.30
2019-06-01T21:40:04.474Z,17.97
2019-06-01T21:42:38.375Z,20.67
2019-06-01T21:45:07.887Z,14.57
2019-06-01T21:47:37.805Z,14.93
2019-06-01T21:50:08.022Z,17.33
2019-06-01T21:52:37.919Z,18.27
2019-06-01T21:55:08.464Z,14.67
2019-06-01T21:57:38.478Z,18.20
2019-06-01T22:00:09.827Z,15.47
2019-06-01T22:02:39.847Z,16.70
2019-06-01T22:05:10.067Z,19.40
2019-06-01T22:07:39.892Z,22.63
2019-06-01T22:10:09.793Z,20.23
2019-06-01T22:12:40.016Z,17.67
2019-06-01T22:15:10.232Z,19.50
2019-06-01T22:17:40.463Z,17.47
2019-06-01T22:20:10.882Z,16.80
2019-06-01T22:22:40.597Z,21.70
2019-06-01T22:25:12.041Z,19.47
2019-06-01T22:27:41.949Z,16.80
2019-06-01T22:30:12.279Z,14.63
2019-06-01T22:32:42.404Z,18.30
2019-06-01T22:35:12.417Z,15.67
2019-06-01T22:37:42.435Z,16.30
2019-06-01T22:40:12.356Z,15.30
2019-06-01T22:42:42.251Z,14.93
2019-06-01T22:45:13.097Z,14.07
2019-06-01T22:47:42.695Z,18.77
2019-06-01T22:50:13.027Z,17.83
2019-06-01T22:52:43.062Z,18.43
2019-06-01T22:55:13.901Z,17.30
2019-06-01T22:57:44.000Z,16.07
2019-06-01T23:00:14.016Z,15.57
2019-06-01T23:02:44.235Z,15.57
2019-06-01T23:05:14.455Z,18.93
2019-06-01T23:07:45.288Z,17.83
2019-06-01T23:10:15.103Z,20.40
2019-06-01T23:12:45.018Z,25.13
2019-06-01T23:15:15.035Z,23.47
2019-06-01T23:17:46.486Z,23.87
2019-06-01T23:20:16.606Z,28.30
2019-06-01T23:22:47.909Z,25.30
2019-06-01T23:25:19.114Z,21.47
2019-06-01T23:27:49.839Z,18.80
2019-06-01T23:30:21.919Z,24.57
2019-06-01T23:32:52.941Z,24.77
2019-06-01T23:35:24.376Z,22.73
2019-06-01T23:37:55.019Z,20.70
2019-06-01T23:40:26.572Z,20.53
2019-06-01T23:42:57.412Z,20.37
2019-06-01T23:45:28.810Z,21.83
2019-06-01T23:48:01.126Z,21.00
2019-06-01T23:50:34.891Z,21.43
2019-06-01T23:53:13.743Z,24.03
2019-06-01T23:55:39.890Z,21.67
2019-06-01T23:58:12.795Z,20.47
